createdAt,value
2019-06-26T00:00:41.193Z,23.10
2019-06-26T00:03:09.621Z,22.90
2019-06-26T00:05:38.061Z,22.80
2019-06-26T00:08:06.642Z,22.80
2019-06-26T00:10:35.161Z,23.00
2019-06-26T00:13:03.597Z,23.10
2019-06-26T00:15:32.038Z,23.40
2019-06-26T00:18:00.548Z,23.50
2019-06-26T00:20:28.985Z,23.50
2019-06-26T00:22:57.417Z,23.30
2019-06-26T00:25:25.860Z,23.00
2019-06-26T00:27:54.293Z,22.80
2019-06-26T00:30:22.732Z,22.90
2019-06-26T00:32:51.175Z,23.00
2019-06-26T00:35:19.612Z,23.20
2019-06-26T00:37:48.046Z,23.00
2019-06-26T00:40:18.020Z,23.00
2019-06-26T00:42:46.717Z,22.90
2019-06-26T00:45:15.153Z,23.10
2019-06-26T00:47:43.583Z,23.10
2019-06-26T00:50:12.858Z,23.10
2019-06-26T00:52:41.292Z,23.00
2019-06-26T00:55:10.575Z,23.00
2019-06-26T00:57:39.083Z,23.00
2019-06-26T01:00:09.628Z,23.00
2019-06-26T01:02:38.197Z,22.90
2019-06-26T01:05:09.828Z,22.80
2019-06-26T01:07:38.603Z,22.80
2019-06-26T01:10:08.489Z,22.60
2019-06-26T01:12:36.924Z,22.50
2019-06-26T01:15:06.994Z,22.40
2019-06-26T01:17:35.508Z,22.40
2019-06-26T01:20:06.636Z,22.40
2019-06-26T01:22:35.163Z,22.40
2019-06-26T01:25:04.330Z,22.40
2019-06-26T01:27:32.769Z,22.40
2019-06-26T01:30:01.303Z,22.50
2019-06-26T01:32:29.757Z,22.70
2019-06-26T01:34:58.184Z,22.90
2019-06-26T01:37:26.630Z,22.90
2019-06-26T01:39:55.062Z,23.00
2019-06-26T01:42:23.582Z,23.10
2019-06-26T01:44:52.006Z,23.20
2019-06-26T01:47:20.444Z,23.20
2019-06-26T01:49:48.872Z,23.20
2019-06-26T01:52:17.350Z,23.10
2019-06-26T01:54:45.827Z,23.20
2019-06-26T01:57:14.268Z,23.20
2019-06-26T01:59:42.698Z,23.20
2019-06-26T02:02:11.138Z,23.10
2019-06-26T02:04:39.571Z,22.80
2019-06-26T02:07:08.025Z,22.90
2019-06-26T02:09:36.449Z,22.80
2019-06-26T02:12:04.897Z,22.80
2019-06-26T02:14:33.321Z,22.80
2019-06-26T02:17:01.773Z,22.90
2019-06-26T02:19:30.201Z,22.90
2019-06-26T02:21:58.644Z,22.90
2019-06-26T02:24:27.074Z,22.80
2019-06-26T02:26:55.518Z,22.80
2019-06-26T02:29:23.965Z,22.80
2019-06-26T02:31:52.407Z,22.80
2019-06-26T02:34:20.907Z,22.80
2019-06-26T02:36:49.345Z,22.70
2019-06-26T02:39:17.784Z,22.60
2019-06-26T02:41:46.227Z,22.70
2019-06-26T02:44:14.813Z,22.70
2019-06-26T02:46:43.325Z,22.40
2019-06-26T02:49:11.845Z,22.10
2019-06-26T02:51:40.275Z,21.70
2019-06-26T02:54:08.705Z,21.30
2019-06-26T02:56:37.143Z,21.10
2019-06-26T02:59:05.919Z,21.00
2019-06-26T03:01:34.406Z,21.00
2019-06-26T03:04:02.868Z,21.30
2019-06-26T03:06:31.304Z,21.60
2019-06-26T03:08:59.745Z,22.00
2019-06-26T03:11:28.177Z,22.20
2019-06-26T03:13:56.627Z,22.30
2019-06-26T03:16:25.063Z,22.30
2019-06-26T03:18:53.549Z,22.40
2019-06-26T03:21:21.985Z,22.10
2019-06-26T03:23:50.439Z,21.70
2019-06-26T03:26:18.860Z,21.80
2019-06-26T03:28:47.307Z,22.00
2019-06-26T03:31:15.735Z,22.30
2019-06-26T03:33:44.182Z,22.40
2019-06-26T03:36:12.623Z,22.60
2019-06-26T03:38:41.064Z,22.70
2019-06-26T03:41:09.514Z,22.60
2019-06-26T03:43:37.954Z,22.60
2019-06-26T03:46:06.388Z,22.50
2019-06-26T03:48:34.813Z,22.50
2019-06-26T03:51:03.259Z,22.50
2019-06-26T03:53:31.693Z,22.60
2019-06-26T03:56:00.137Z,22.70
2019-06-26T03:58:28.573Z,22.80
2019-06-26T04:00:57.008Z,22.90
2019-06-26T04:03:25.453Z,22.90
2019-06-26T04:05:53.882Z,22.90
2019-06-26T04:08:22.413Z,23.00
2019-06-26T04:10:50.862Z,23.00
2019-06-26T04:13:19.292Z,23.20
2019-06-26T04:15:50.776Z,23.30
2019-06-26T04:18:17.877Z,23.30
2019-06-26T04:20:46.314Z,23.30
2019-06-26T04:23:14.750Z,23.20
2019-06-26T04:25:43.241Z,23.10
2019-06-26T04:28:11.680Z,22.90
2019-06-26T04:30:40.161Z,22.90
2019-06-26T04:33:08.577Z,22.90
2019-06-26T04:35:37.301Z,23.00
2019-06-26T04:38:05.724Z,23.10
2019-06-26T04:40:34.204Z,23.20
2019-06-26T04:43:02.676Z,23.20
2019-06-26T04:45:31.120Z,23.30
2019-06-26T04:47:59.548Z,23.40
2019-06-26T04:50:27.972Z,23.60
2019-06-26T04:52:56.419Z,23.70
2019-06-26T04:55:24.840Z,23.90
2019-06-26T04:57:53.278Z,24.00
2019-06-26T05:00:22.166Z,24.10
2019-06-26T05:02:50.655Z,24.20
2019-06-26T05:05:19.324Z,24.30
2019-06-26T05:07:47.764Z,24.40
2019-06-26T05:10:16.362Z,24.50
2019-06-26T05:12:44.796Z,24.60
2019-06-26T05:15:14.069Z,24.80
2019-06-26T05:17:42.502Z,25.00
2019-06-26T05:20:11.671Z,25.20
2019-06-26T05:22:40.104Z,25.30
2019-06-26T05:25:09.478Z,25.40
2019-06-26T05:27:38.044Z,25.30
2019-06-26T05:30:07.930Z,25.50
2019-06-26T05:32:36.365Z,25.60
2019-06-26T05:35:06.928Z,25.80
2019-06-26T05:37:35.380Z,26.00
2019-06-26T05:40:06.890Z,26.20
2019-06-26T05:42:35.445Z,26.50
2019-06-26T05:45:04.536Z,26.50
2019-06-26T05:47:32.977Z,26.60
2019-06-26T05:50:01.417Z,26.70
2019-06-26T05:52:29.915Z,26.80
2019-06-26T05:54:58.350Z,26.90
2019-06-26T05:57:26.789Z,26.80
2019-06-26T05:59:55.219Z,26.90
2019-06-26T06:02:23.694Z,27.10
2019-06-26T06:04:52.158Z,27.20
2019-06-26T06:07:20.604Z,27.30
2019-06-26T06:09:49.026Z,27.40
2019-06-26T06:12:17.469Z,27.30
2019-06-26T06:14:45.932Z,27.70
2019-06-26T06:17:14.361Z,27.80
2019-06-26T06:19:42.793Z,28.10
2019-06-26T06:22:11.220Z,28.20
2019-06-26T06:24:39.657Z,28.30
2019-06-26T06:27:08.088Z,28.50
2019-06-26T06:29:36.521Z,28.70
2019-06-26T06:32:04.941Z,28.90
2019-06-26T06:34:33.381Z,28.90
2019-06-26T06:37:01.798Z,28.90
2019-06-26T06:39:30.229Z,28.90
2019-06-26T06:41:59.592Z,29.10
2019-06-26T06:44:28.172Z,29.20
2019-06-26T06:47:04.044Z,29.20
2019-06-26T06:49:26.764Z,29.20
2019-06-26T06:51:55.195Z,29.20
2019-06-26T06:54:23.625Z,29.40
2019-06-26T06:56:52.061Z,29.10
2019-06-26T06:59:20.764Z,29.40
2019-06-26T07:01:49.189Z,29.50
2019-06-26T07:04:17.899Z,29.10
2019-06-26T07:06:46.320Z,28.80
2019-06-26T07:09:14.769Z,29.30
2019-06-26T07:11:43.266Z,28.70
2019-06-26T07:14:11.760Z,28.70
2019-06-26T07:16:40.676Z,29.20
2019-06-26T07:19:09.134Z,29.40
2019-06-26T07:21:37.561Z,29.40
2019-06-26T07:24:06.056Z,29.60
2019-06-26T07:26:34.491Z,29.60
2019-06-26T07:29:02.913Z,29.80
2019-06-26T07:31:31.348Z,29.50
2019-06-26T07:33:59.764Z,29.40
2019-06-26T07:36:28.196Z,29.60
2019-06-26T07:38:56.641Z,29.40
2019-06-26T07:41:25.078Z,29.80
2019-06-26T07:43:53.492Z,29.60
2019-06-26T07:46:21.943Z,29.50
2019-06-26T07:48:50.352Z,29.40
2019-06-26T07:51:18.786Z,29.60
2019-06-26T07:53:47.216Z,29.60
2019-06-26T07:56:15.688Z,29.60
2019-06-26T07:58:44.455Z,29.50
2019-06-26T08:01:12.884Z,29.80
2019-06-26T08:03:41.625Z,29.90
2019-06-26T08:06:10.046Z,29.80
2019-06-26T08:08:38.492Z,29.80
2019-06-26T08:11:06.973Z,29.80
2019-06-26T08:13:35.404Z,30.10
2019-06-26T08:16:03.892Z,30.30
2019-06-26T08:18:32.327Z,30.30
2019-06-26T08:21:11.951Z,30.30
2019-06-26T08:23:30.984Z,30.50
2019-06-26T08:25:59.406Z,30.60
2019-06-26T08:28:27.843Z,30.90
2019-06-26T08:30:56.280Z,30.90
2019-06-26T08:33:24.730Z,31.00
2019-06-26T08:35:53.144Z,30.70
2019-06-26T08:38:21.575Z,30.60
2019-06-26T08:40:50.001Z,30.60
2019-06-26T08:43:18.501Z,30.40
2019-06-26T08:45:46.929Z,30.10
2019-06-26T08:48:23.226Z,30.20
2019-06-26T08:50:45.520Z,30.60
2019-06-26T08:53:13.949Z,30.60
2019-06-26T08:55:42.392Z,30.60
2019-06-26T08:58:10.825Z,30.20
2019-06-26T09:00:39.256Z,30.10
2019-06-26T09:03:07.736Z,30.10
2019-06-26T09:05:47.403Z,30.20
2019-06-26T09:08:06.334Z,30.30
2019-06-26T09:10:34.840Z,30.30
2019-06-26T09:13:03.268Z,30.30
2019-06-26T09:15:31.717Z,30.00
2019-06-26T09:18:00.842Z,29.90
2019-06-26T09:20:32.419Z,29.50
2019-06-26T09:23:01.160Z,29.80
2019-06-26T09:25:29.657Z,30.00
2019-06-26T09:27:58.146Z,29.70
2019-06-26T09:30:26.588Z,29.30
2019-06-26T09:32:55.028Z,29.20
2019-06-26T09:35:23.457Z,29.60
2019-06-26T09:37:51.885Z,29.50
2019-06-26T09:40:20.700Z,29.80
2019-06-26T09:42:49.369Z,29.40
2019-06-26T09:45:18.741Z,29.50
2019-06-26T09:47:47.176Z,29.70
2019-06-26T09:50:16.143Z,29.80
2019-06-26T09:52:44.568Z,29.90
2019-06-26T09:55:13.141Z,29.90
2019-06-26T09:57:41.559Z,30.00
2019-06-26T10:00:12.012Z,30.10
2019-06-26T10:02:40.508Z,30.20
2019-06-26T10:05:09.284Z,30.00
2019-06-26T10:07:37.714Z,30.10
2019-06-26T10:10:07.190Z,30.20
2019-06-26T10:12:35.626Z,30.20
2019-06-26T10:15:06.957Z,30.20
2019-06-26T10:17:35.468Z,30.10
2019-06-26T10:20:06.429Z,29.80
2019-06-26T10:22:34.870Z,29.70
2019-06-26T10:25:03.841Z,29.80
2019-06-26T10:27:32.287Z,30.00
2019-06-26T10:30:00.766Z,29.90
2019-06-26T10:32:29.201Z,30.00
2019-06-26T10:34:57.633Z,29.70
2019-06-26T10:37:26.069Z,29.60
2019-06-26T10:39:54.564Z,29.50
2019-06-26T10:42:23.068Z,29.70
2019-06-26T10:44:51.492Z,29.40
2019-06-26T10:47:19.929Z,29.40
2019-06-26T10:49:48.349Z,29.30
2019-06-26T10:52:16.798Z,29.50
2019-06-26T10:54:45.212Z,29.30
2019-06-26T10:57:13.651Z,29.10
2019-06-26T10:59:42.135Z,29.00
2019-06-26T11:02:10.588Z,29.20
2019-06-26T11:04:39.012Z,29.20
2019-06-26T11:07:07.457Z,29.30
2019-06-26T11:09:35.994Z,29.20
2019-06-26T11:12:04.428Z,29.50
2019-06-26T11:14:32.858Z,29.40
2019-06-26T11:17:01.302Z,29.00
2019-06-26T11:19:43.253Z,29.00
2019-06-26T11:22:00.010Z,29.10
2019-06-26T11:24:28.428Z,28.80
2019-06-26T11:26:56.864Z,29.30
2019-06-26T11:29:25.312Z,29.30
2019-06-26T11:31:53.756Z,29.20
2019-06-26T11:34:22.175Z,29.10
2019-06-26T11:37:03.076Z,28.80
2019-06-26T11:39:20.828Z,28.90
2019-06-26T11:41:49.333Z,28.90
2019-06-26T11:44:17.766Z,29.00
2019-06-26T11:46:46.265Z,28.90
2019-06-26T11:49:14.766Z,29.00
2019-06-26T11:51:43.545Z,29.00
2019-06-26T11:54:11.976Z,28.70
2019-06-26T11:56:40.431Z,29.00
2019-06-26T11:59:08.860Z,29.00
2019-06-26T12:01:37.284Z,29.00
2019-06-26T12:04:06.160Z,29.10
2019-06-26T12:06:34.587Z,28.90
2019-06-26T12:09:03.682Z,28.90
2019-06-26T12:11:32.104Z,29.00
2019-06-26T12:14:00.544Z,29.10
2019-06-26T12:16:28.978Z,29.20
2019-06-26T12:18:57.478Z,29.30
2019-06-26T12:21:25.901Z,29.70
2019-06-26T12:23:54.412Z,29.80
2019-06-26T12:26:22.841Z,29.70
2019-06-26T12:28:51.341Z,29.70
2019-06-26T12:31:19.764Z,29.60
2019-06-26T12:33:48.206Z,29.40
2019-06-26T12:36:16.772Z,29.20
2019-06-26T12:38:45.205Z,29.10
2019-06-26T12:41:13.628Z,29.20
2019-06-26T12:43:42.078Z,29.00
2019-06-26T12:46:10.568Z,29.20
2019-06-26T12:48:39.022Z,29.00
2019-06-26T12:51:07.482Z,28.90
2019-06-26T12:53:35.908Z,28.90
2019-06-26T12:56:04.339Z,28.70
2019-06-26T12:58:32.791Z,28.90
2019-06-26T13:01:01.226Z,28.20
2019-06-26T13:03:29.717Z,28.30
2019-06-26T13:05:58.156Z,28.80
2019-06-26T13:08:26.574Z,29.00
2019-06-26T13:10:55.010Z,29.00
2019-06-26T13:13:33.025Z,28.90
2019-06-26T13:16:03.345Z,28.70
2019-06-26T13:18:31.843Z,28.90
2019-06-26T13:21:00.304Z,28.70
2019-06-26T13:23:28.774Z,28.70
2019-06-26T13:25:57.280Z,28.50
2019-06-26T13:28:25.708Z,28.10
2019-06-26T13:30:54.137Z,28.10
2019-06-26T13:33:22.564Z,27.70
2019-06-26T13:35:51.005Z,27.60
2019-06-26T13:38:19.492Z,27.50
2019-06-26T13:40:47.965Z,27.80
2019-06-26T13:43:16.530Z,27.70
2019-06-26T13:45:44.981Z,27.60
2019-06-26T13:48:13.443Z,27.40
2019-06-26T13:50:42.137Z,27.10
2019-06-26T13:53:10.549Z,26.70
2019-06-26T13:55:39.027Z,27.30
2019-06-26T13:58:07.493Z,27.20
2019-06-26T14:00:35.997Z,26.70
2019-06-26T14:03:08.366Z,25.90
2019-06-26T14:05:36.886Z,25.90
2019-06-26T14:08:05.360Z,25.70
2019-06-26T14:10:34.064Z,25.50
2019-06-26T14:13:02.492Z,25.20
2019-06-26T14:15:30.920Z,24.90
2019-06-26T14:17:59.352Z,24.40
2019-06-26T14:20:27.812Z,24.00
2019-06-26T14:22:56.322Z,24.00
2019-06-26T14:25:24.751Z,24.10
2019-06-26T14:27:53.181Z,24.10
2019-06-26T14:30:22.146Z,24.40
2019-06-26T14:32:50.600Z,24.30
2019-06-26T14:35:19.092Z,23.90
2019-06-26T14:37:47.517Z,23.60
2019-06-26T14:40:16.109Z,23.30
2019-06-26T14:42:44.614Z,23.30
2019-06-26T14:45:13.269Z,23.10
2019-06-26T14:47:41.702Z,23.10
2019-06-26T14:50:11.264Z,23.10
2019-06-26T14:52:41.887Z,23.10
2019-06-26T14:55:11.390Z,23.40
2019-06-26T14:57:39.829Z,23.20
2019-06-26T15:00:09.351Z,23.60
2019-06-26T15:02:37.844Z,24.00
2019-06-26T15:05:06.908Z,24.20
2019-06-26T15:07:35.562Z,24.20
2019-06-26T15:10:08.534Z,24.60
2019-06-26T15:12:36.976Z,24.40
2019-06-26T15:15:06.557Z,24.10
2019-06-26T15:17:35.050Z,23.70
2019-06-26T15:20:04.597Z,23.40
2019-06-26T15:22:33.089Z,23.60
2019-06-26T15:25:01.594Z,23.50
2019-06-26T15:27:30.129Z,23.70
2019-06-26T15:29:58.558Z,23.40
2019-06-26T15:32:27.012Z,22.80
2019-06-26T15:34:55.425Z,22.60
2019-06-26T15:37:24.440Z,22.50
2019-06-26T15:39:52.863Z,22.10
2019-06-26T15:42:21.287Z,22.10
2019-06-26T15:44:49.729Z,22.20
2019-06-26T15:47:18.150Z,22.30
2019-06-26T15:49:46.601Z,22.10
2019-06-26T15:52:15.688Z,22.30
2019-06-26T15:54:44.348Z,22.10
2019-06-26T15:57:12.775Z,22.30
2019-06-26T15:59:41.217Z,22.20
2019-06-26T16:02:09.645Z,22.30
2019-06-26T16:04:38.217Z,22.00
2019-06-26T16:07:06.754Z,21.90
2019-06-26T16:09:35.187Z,21.70
2019-06-26T16:12:03.641Z,21.70
2019-06-26T16:14:32.076Z,21.70
2019-06-26T16:17:02.231Z,21.60
2019-06-26T16:19:30.724Z,21.60
2019-06-26T16:21:59.157Z,21.30
2019-06-26T16:24:30.116Z,21.10
2019-06-26T16:26:57.748Z,21.30
2019-06-26T16:29:26.177Z,21.40
2019-06-26T16:31:54.680Z,21.10
2019-06-26T16:34:23.229Z,21.20
2019-06-26T16:36:51.652Z,21.20
2019-06-26T16:39:21.733Z,20.90
2019-06-26T16:41:50.184Z,20.70
2019-06-26T16:44:18.617Z,20.60
2019-06-26T16:46:47.053Z,20.50
2019-06-26T16:49:15.488Z,20.60
2019-06-26T16:51:43.952Z,20.60
2019-06-26T16:54:12.431Z,20.60
2019-06-26T16:56:40.860Z,20.70
2019-06-26T16:59:09.301Z,20.60
2019-06-26T17:01:57.117Z,20.60
2019-06-26T17:04:25.622Z,20.50
2019-06-26T17:06:54.078Z,20.40
2019-06-26T17:09:22.617Z,20.30
2019-06-26T17:11:51.076Z,20.10
2019-06-26T17:14:19.536Z,20.10
2019-06-26T17:16:48.056Z,20.00
2019-06-26T17:19:16.630Z,19.90
2019-06-26T17:21:45.094Z,19.80
2019-06-26T17:24:13.533Z,19.80
2019-06-26T17:26:42.070Z,19.90
2019-06-26T17:29:10.560Z,19.80
2019-06-26T17:31:39.062Z,19.90
2019-06-26T17:34:07.507Z,19.70
2019-06-26T17:36:35.975Z,19.50
2019-06-26T17:39:06.699Z,19.40
2019-06-26T17:41:35.148Z,19.20
2019-06-26T17:44:03.662Z,19.40
2019-06-26T17:46:32.173Z,19.40
2019-06-26T17:49:00.615Z,19.30
2019-06-26T17:51:29.158Z,19.30
2019-06-26T17:53:57.600Z,19.30
2019-06-26T17:56:26.044Z,19.00
2019-06-26T17:58:54.498Z,19.10
2019-06-26T18:01:22.979Z,18.90
2019-06-26T18:03:51.467Z,18.80
2019-06-26T18:06:19.918Z,18.70
2019-06-26T18:08:48.418Z,18.90
2019-06-26T18:11:17.007Z,19.00
2019-06-26T18:13:45.445Z,19.00
2019-06-26T18:16:13.900Z,19.10
2019-06-26T18:18:42.431Z,18.80
2019-06-26T18:21:10.919Z,18.70
2019-06-26T18:23:39.483Z,18.60
2019-06-26T18:26:13.453Z,18.70
2019-06-26T18:28:38.230Z,18.60
2019-06-26T18:31:06.745Z,18.40
2019-06-26T18:33:35.284Z,18.30
2019-06-26T18:36:03.957Z,18.20
2019-06-26T18:38:32.414Z,18.20
2019-06-26T18:41:00.912Z,18.20
2019-06-26T18:43:29.503Z,18.20
2019-06-26T18:45:57.953Z,18.30
2019-06-26T18:48:26.404Z,18.20
2019-06-26T18:50:54.867Z,18.20
2019-06-26T18:53:23.337Z,18.30
2019-06-26T18:55:51.775Z,18.50
2019-06-26T18:58:20.235Z,18.40
2019-06-26T19:00:48.682Z,18.40
2019-06-26T19:03:17.145Z,18.50
2019-06-26T19:05:45.647Z,18.60
2019-06-26T19:08:14.162Z,18.60
2019-06-26T19:10:43.240Z,18.40
2019-06-26T19:13:11.732Z,18.30
2019-06-26T19:15:40.175Z,18.10
2019-06-26T19:18:08.645Z,17.80
2019-06-26T19:20:37.158Z,17.90
2019-06-26T19:23:05.616Z,18.10
2019-06-26T19:25:34.136Z,17.90
2019-06-26T19:28:02.600Z,17.80
2019-06-26T19:30:31.152Z,17.80
2019-06-26T19:32:59.606Z,17.80
2019-06-26T19:35:28.048Z,17.70
2019-06-26T19:37:56.490Z,17.80
2019-06-26T19:40:24.946Z,17.80
2019-06-26T19:42:53.410Z,17.70
2019-06-26T19:45:22.892Z,17.60
2019-06-26T19:47:51.455Z,17.60
2019-06-26T19:50:23.418Z,17.50
2019-06-26T19:52:50.866Z,17.60
2019-06-26T19:55:40.199Z,17.70
2019-06-26T19:58:08.650Z,17.90
2019-06-26T20:00:37.099Z,17.80
2019-06-26T20:03:05.554Z,17.70
2019-06-26T20:05:33.996Z,17.60
2019-06-26T20:08:02.563Z,17.40
2019-06-26T20:10:31.067Z,17.30
2019-06-26T20:12:59.604Z,17.30
2019-06-26T20:15:28.043Z,17.30
2019-06-26T20:17:56.495Z,17.20
2019-06-26T20:20:24.962Z,17.20
2019-06-26T20:22:53.472Z,17.10
2019-06-26T20:25:22.027Z,17.20
2019-06-26T20:27:56.644Z,17.30
2019-06-26T20:30:23.885Z,17.20
2019-06-26T20:32:52.401Z,17.10
2019-06-26T20:35:21.061Z,17.00
2019-06-26T20:37:49.514Z,17.10
2019-06-26T20:40:18.237Z,17.10
2019-06-26T20:42:46.778Z,17.00
2019-06-26T20:45:15.547Z,16.90
2019-06-26T20:47:44.073Z,16.90
2019-06-26T20:50:12.959Z,16.90
2019-06-26T20:52:41.813Z,17.00
2019-06-26T20:55:10.322Z,17.10
2019-06-26T20:57:38.764Z,17.00
2019-06-26T21:00:08.752Z,16.90
2019-06-26T21:02:37.359Z,16.80
2019-06-26T21:05:06.725Z,16.60
2019-06-26T21:07:35.188Z,16.50
2019-06-26T21:10:04.763Z,16.30
2019-06-26T21:12:33.286Z,16.30
2019-06-26T21:15:01.756Z,16.30
2019-06-26T21:17:30.388Z,16.30
2019-06-26T21:19:58.924Z,16.30
2019-06-26T21:22:27.363Z,16.30
2019-06-26T21:24:55.824Z,16.40
2019-06-26T21:27:24.266Z,16.30
2019-06-26T21:29:52.755Z,16.10
2019-06-26T21:32:21.198Z,15.90
2019-06-26T21:34:49.643Z,15.90
2019-06-26T21:37:18.103Z,15.80
2019-06-26T21:39:46.552Z,15.80
2019-06-26T21:42:15.071Z,15.90
2019-06-26T21:44:43.516Z,15.90
2019-06-26T21:47:11.971Z,15.90
2019-06-26T21:49:40.425Z,16.00
2019-06-26T21:52:08.899Z,15.90
2019-06-26T21:54:37.570Z,16.10
2019-06-26T21:57:09.130Z,16.00
2019-06-26T21:59:36.242Z,15.90
2019-06-26T22:02:04.802Z,15.80
2019-06-26T22:04:33.589Z,15.70
2019-06-26T22:07:02.195Z,15.60
2019-06-26T22:09:30.650Z,15.50
2019-06-26T22:12:00.841Z,15.60
2019-06-26T22:14:29.482Z,15.60
2019-06-26T22:16:57.943Z,15.60
2019-06-26T22:19:26.569Z,15.60
2019-06-26T22:21:55.016Z,15.70
2019-06-26T22:24:23.453Z,15.70
2019-06-26T22:26:52.003Z,15.70
2019-06-26T22:29:20.462Z,15.70
2019-06-26T22:31:48.995Z,15.60
2019-06-26T22:34:17.440Z,15.60
2019-06-26T22:36:51.728Z,15.70
2019-06-26T22:39:16.499Z,15.60
2019-06-26T22:41:44.942Z,15.60
2019-06-26T22:44:13.388Z,15.50
2019-06-26T22:46:41.835Z,15.40
2019-06-26T22:49:10.292Z,15.40
2019-06-26T22:51:38.731Z,15.30
2019-06-26T22:54:07.192Z,15.30
2019-06-26T22:56:35.632Z,15.30
2019-06-26T22:59:04.130Z,15.40
2019-06-26T23:01:32.620Z,15.40
2019-06-26T23:04:01.088Z,15.50
2019-06-26T23:06:29.538Z,15.50
2019-06-26T23:08:57.987Z,15.40
2019-06-26T23:11:26.440Z,15.40
2019-06-26T23:13:54.888Z,15.50
2019-06-26T23:16:23.337Z,15.70
2019-06-26T23:18:51.785Z,15.70
2019-06-26T23:21:20.226Z,15.70
2019-06-26T23:23:48.683Z,15.70
2019-06-26T23:26:23.895Z,15.60
2019-06-26T23:28:47.344Z,15.40
2019-06-26T23:31:15.780Z,15.30
2019-06-26T23:33:44.246Z,15.10
2019-06-26T23:36:12.693Z,15.10
2019-06-26T23:38:41.138Z,15.10
2019-06-26T23:41:09.652Z,15.00
2019-06-26T23:43:38.107Z,15.00
2019-06-26T23:46:06.553Z,15.00
2019-06-26T23:48:35.003Z,15.10
2019-06-26T23:51:03.446Z,15.00
2019-06-26T23:53:31.899Z,15.00
2019-06-26T23:56:19.687Z,15.00
2019-06-26T23:58:48.236Z,15.00
